createdAt,value
2023-03-27T00:01:12.085Z,14.20
2023-03-27T00:03:40.092Z,14.00
2023-03-27T00:08:53.413Z,13.80
2023-03-27T00:11:21.382Z,13.70
2023-03-27T00:13:51.388Z,13.60
2023-03-27T00:16:23.107Z,13.70
2023-03-27T00:18:49.918Z,13.90
2023-03-27T00:21:16.668Z,14.10
2023-03-27T00:23:43.544Z,14.10
2023-03-27T00:26:12.052Z,14.30
2023-03-27T00:28:38.951Z,14.30
2023-03-27T00:31:09.716Z,14.30
2023-03-27T00:33:36.459Z,14.20
2023-03-27T00:36:03.236Z,14.20
2023-03-27T00:38:30.113Z,14.10
2023-03-27T00:40:57.560Z,14.10
2023-03-27T00:43:29.058Z,14.20
2023-03-27T00:46:02.382Z,14.20
2023-03-27T00:48:30.939Z,14.10
2023-03-27T00:50:58.621Z,14.20
2023-03-27T00:53:27.811Z,14.20
2023-03-27T00:55:55.919Z,14.20
2023-03-27T00:58:24.897Z,14.10
2023-03-27T01:00:53.285Z,14.10
2023-03-27T01:03:21.530Z,14.00
2023-03-27T01:05:48.672Z,14.00
2023-03-27T01:08:34.129Z,14.00
2023-03-27T01:11:19.290Z,13.90
2023-03-27T01:14:04.878Z,13.90
2023-03-27T01:16:37.389Z,13.90
2023-03-27T01:22:52.763Z,13.90
2023-03-27T01:25:34.278Z,14.00
2023-03-27T01:28:04.061Z,14.10
2023-03-27T01:30:36.451Z,14.00
2023-03-27T01:33:25.904Z,13.50
2023-03-27T01:36:10.636Z,12.90
2023-03-27T01:38:43.221Z,12.50
2023-03-27T01:41:13.388Z,12.60
2023-03-27T01:43:44.557Z,12.80
2023-03-27T01:46:43.744Z,13.10
2023-03-27T01:49:22.540Z,13.30
2023-03-27T01:51:52.271Z,13.60
2023-03-27T01:54:21.939Z,13.90
2023-03-27T01:56:53.897Z,14.00
2023-03-27T01:59:22.729Z,14.10
2023-03-27T02:02:00.817Z,13.90
2023-03-27T02:04:34.733Z,13.80
2023-03-27T02:07:04.792Z,13.70
2023-03-27T02:09:34.476Z,13.70
2023-03-27T02:12:21.316Z,13.70
2023-03-27T02:14:51.538Z,13.70
2023-03-27T02:17:20.530Z,13.60
2023-03-27T02:19:51.359Z,13.60
2023-03-27T02:22:18.617Z,13.70
2023-03-27T02:24:46.317Z,13.70
2023-03-27T02:27:22.386Z,13.70
2023-03-27T02:29:52.259Z,13.60
2023-03-27T02:32:54.349Z,13.60
2023-03-27T02:35:30.253Z,13.70
2023-03-27T02:38:03.071Z,13.80
2023-03-27T02:40:39.930Z,13.70
2023-03-27T02:43:14.777Z,13.10
2023-03-27T02:46:10.841Z,12.80
2023-03-27T02:48:40.799Z,12.60
2023-03-27T02:51:12.817Z,12.50
2023-03-27T02:53:43.942Z,12.60
2023-03-27T02:56:11.923Z,12.80
2023-03-27T02:58:45.619Z,13.00
2023-03-27T03:01:16.320Z,13.30
2023-03-27T03:03:49.139Z,13.60
2023-03-27T03:06:15.955Z,13.80
2023-03-27T03:08:43.275Z,13.80
2023-03-27T03:11:12.079Z,13.80
2023-03-27T03:13:39.108Z,13.80
2023-03-27T03:16:06.205Z,13.70
2023-03-27T03:18:33.035Z,13.60
2023-03-27T03:21:00.149Z,13.60
2023-03-27T03:23:27.186Z,13.60
2023-03-27T03:25:56.892Z,13.70
2023-03-27T03:28:26.043Z,13.80
2023-03-27T03:30:53.771Z,13.90
2023-03-27T03:33:21.215Z,13.80
2023-03-27T03:35:49.086Z,13.70
2023-03-27T03:38:24.865Z,13.60
2023-03-27T03:40:55.615Z,13.50
2023-03-27T03:43:23.279Z,13.40
2023-03-27T03:45:50.561Z,13.30
2023-03-27T03:48:17.960Z,13.30
2023-03-27T03:50:45.738Z,13.30
2023-03-27T03:53:12.919Z,13.40
2023-03-27T03:55:39.725Z,13.40
2023-03-27T03:58:06.738Z,13.50
2023-03-27T04:00:39.692Z,13.50
2023-03-27T04:03:07.499Z,13.50
2023-03-27T04:05:37.601Z,13.60
2023-03-27T04:08:07.335Z,13.50
2023-03-27T04:10:34.761Z,13.40
2023-03-27T04:13:01.525Z,13.40
2023-03-27T04:15:28.442Z,13.40
2023-03-27T04:17:55.260Z,13.30
2023-03-27T04:20:22.034Z,13.30
2023-03-27T04:22:51.417Z,13.30
2023-03-27T04:25:22.209Z,13.40
2023-03-27T04:27:52.065Z,13.50
2023-03-27T04:30:23.262Z,13.50
2023-03-27T04:32:51.090Z,13.60
2023-03-27T04:35:19.052Z,13.60
2023-03-27T04:37:46.700Z,13.60
2023-03-27T04:40:14.648Z,13.60
2023-03-27T04:42:44.901Z,13.70
2023-03-27T04:45:13.227Z,13.70
2023-03-27T04:47:40.314Z,13.80
2023-03-27T04:50:07.646Z,13.90
2023-03-27T04:52:34.900Z,13.80
2023-03-27T04:55:01.861Z,13.80
2023-03-27T04:57:31.031Z,13.70
2023-03-27T04:59:58.541Z,13.50
2023-03-27T05:02:26.507Z,13.70
2023-03-27T05:04:58.721Z,13.90
2023-03-27T05:07:26.649Z,13.90
2023-03-27T05:09:53.469Z,13.90
2023-03-27T05:12:20.832Z,13.80
2023-03-27T05:14:48.633Z,13.90
2023-03-27T05:17:16.487Z,13.90
2023-03-27T05:19:43.627Z,13.80
2023-03-27T05:22:10.450Z,13.70
2023-03-27T05:24:37.785Z,13.60
2023-03-27T05:27:04.964Z,13.60
2023-03-27T05:29:46.663Z,13.70
2023-03-27T05:32:14.242Z,13.70
2023-03-27T05:34:41.467Z,13.90
2023-03-27T05:37:08.216Z,13.90
2023-03-27T05:39:36.679Z,14.00
2023-03-27T05:42:03.698Z,13.90
2023-03-27T05:44:30.437Z,13.90
2023-03-27T05:46:57.466Z,13.80
2023-03-27T05:49:24.233Z,13.80
2023-03-27T05:51:50.979Z,13.90
2023-03-27T05:54:17.754Z,14.00
2023-03-27T05:56:44.563Z,14.00
2023-03-27T05:59:11.810Z,14.00
2023-03-27T06:01:39.977Z,14.10
2023-03-27T06:04:09.380Z,14.00
2023-03-27T06:06:36.575Z,14.00
2023-03-27T06:09:03.937Z,14.10
2023-03-27T06:11:30.890Z,14.20
2023-03-27T06:13:58.703Z,14.20
2023-03-27T06:16:25.896Z,14.10
2023-03-27T06:18:53.166Z,14.10
2023-03-27T06:21:20.960Z,14.10
2023-03-27T06:23:47.927Z,14.10
2023-03-27T06:26:15.631Z,14.20
2023-03-27T06:28:42.673Z,14.30
2023-03-27T06:31:09.538Z,14.30
2023-03-27T06:33:36.386Z,14.30
2023-03-27T06:36:03.369Z,14.20
2023-03-27T06:38:32.482Z,14.30
2023-03-27T06:41:00.069Z,14.40
2023-03-27T06:43:27.030Z,14.40
2023-03-27T06:45:54.254Z,14.40
2023-03-27T06:48:22.638Z,14.40
2023-03-27T06:50:50.693Z,14.40
2023-03-27T06:55:47.952Z,14.50
2023-03-27T06:58:15.131Z,14.60
2023-03-27T07:00:42.450Z,14.50
2023-03-27T07:03:10.268Z,14.40
2023-03-27T07:05:38.963Z,14.50
2023-03-27T07:08:18.991Z,14.50
2023-03-27T07:10:59.809Z,14.30
2023-03-27T07:13:34.836Z,14.20
2023-03-27T07:16:01.659Z,14.20
2023-03-27T07:18:28.563Z,14.10
2023-03-27T07:23:22.328Z,14.10
2023-03-27T07:25:50.243Z,14.10
2023-03-27T07:28:18.582Z,14.00
2023-03-27T07:30:45.412Z,14.00
2023-03-27T07:33:12.694Z,13.90
2023-03-27T07:35:43.594Z,14.00
2023-03-27T07:38:10.583Z,14.00
2023-03-27T07:40:40.471Z,14.10
2023-03-27T07:43:07.812Z,14.00
2023-03-27T07:45:35.290Z,14.00
2023-03-27T07:48:09.358Z,14.00
2023-03-27T07:50:37.624Z,14.00
2023-03-27T07:53:06.467Z,14.00
2023-03-27T07:55:33.874Z,14.00
2023-03-27T07:58:03.007Z,14.00
2023-03-27T08:00:31.265Z,14.10
2023-03-27T08:03:11.635Z,14.10
2023-03-27T08:05:38.667Z,14.10
2023-03-27T08:08:05.497Z,14.10
2023-03-27T08:10:32.472Z,14.10
2023-03-27T08:12:59.232Z,14.10
2023-03-27T08:15:26.161Z,14.10
2023-03-27T08:17:55.093Z,14.10
2023-03-27T08:20:23.886Z,14.20
2023-03-27T08:22:51.455Z,14.10
2023-03-27T08:25:18.297Z,14.10
2023-03-27T08:27:45.390Z,14.10
2023-03-27T08:30:16.672Z,14.00
2023-03-27T08:32:44.081Z,14.10
2023-03-27T08:35:10.887Z,14.10
2023-03-27T08:37:37.807Z,14.10
2023-03-27T08:40:11.118Z,14.10
2023-03-27T08:42:40.069Z,14.00
2023-03-27T08:45:19.052Z,14.10
2023-03-27T08:47:50.526Z,14.20
2023-03-27T08:50:36.038Z,14.10
2023-03-27T08:53:04.869Z,14.20
2023-03-27T08:55:42.539Z,14.30
2023-03-27T08:58:15.786Z,14.30
2023-03-27T09:00:42.652Z,14.20
2023-03-27T09:03:40.777Z,14.30
2023-03-27T09:06:11.701Z,14.30
2023-03-27T09:08:43.725Z,14.30
2023-03-27T09:11:24.295Z,14.40
2023-03-27T09:13:51.630Z,14.40
2023-03-27T09:16:21.708Z,14.40
2023-03-27T09:19:07.163Z,14.50
2023-03-27T09:21:52.769Z,14.50
2023-03-27T09:24:27.369Z,14.50
2023-03-27T09:27:04.765Z,14.60
2023-03-27T09:29:36.512Z,14.70
2023-03-27T09:32:04.072Z,14.70
2023-03-27T09:34:34.513Z,14.70
2023-03-27T09:37:01.663Z,14.70
2023-03-27T09:39:30.140Z,14.70
2023-03-27T09:41:59.804Z,14.70
2023-03-27T09:44:32.981Z,14.70
2023-03-27T09:47:06.596Z,14.80
2023-03-27T09:49:34.500Z,14.80
2023-03-27T09:52:02.819Z,14.80
2023-03-27T09:54:29.823Z,14.90
2023-03-27T09:57:03.556Z,14.80
2023-03-27T09:59:34.280Z,14.80
2023-03-27T10:02:10.060Z,14.90
2023-03-27T10:04:36.857Z,14.80
2023-03-27T10:07:06.924Z,15.00
2023-03-27T10:09:37.554Z,15.00
2023-03-27T10:12:09.626Z,15.00
2023-03-27T10:14:39.455Z,15.00
2023-03-27T10:17:06.719Z,14.90
2023-03-27T10:19:38.557Z,15.00
2023-03-27T10:22:23.934Z,15.10
2023-03-27T10:24:53.111Z,15.10
2023-03-27T10:27:25.535Z,15.20
2023-03-27T10:29:52.426Z,15.10
2023-03-27T10:32:19.236Z,15.10
2023-03-27T10:34:54.244Z,15.10
2023-03-27T10:37:31.760Z,15.20
2023-03-27T10:40:07.728Z,15.10
2023-03-27T10:42:35.792Z,15.20
2023-03-27T10:45:03.155Z,15.10
2023-03-27T10:47:31.983Z,15.20
2023-03-27T10:50:16.435Z,15.20
2023-03-27T10:52:49.243Z,15.20
2023-03-27T10:55:31.483Z,15.30
2023-03-27T10:58:00.283Z,15.20
2023-03-27T11:00:32.550Z,15.20
2023-03-27T11:03:18.164Z,15.30
2023-03-27T11:05:46.919Z,15.30
2023-03-27T11:08:34.080Z,15.20
2023-03-27T11:11:07.426Z,15.20
2023-03-27T11:13:36.593Z,15.20
2023-03-27T11:16:03.848Z,15.20
2023-03-27T11:18:36.168Z,15.20
2023-03-27T11:21:12.979Z,15.20
2023-03-27T11:23:42.640Z,15.20
2023-03-27T11:26:11.601Z,15.20
2023-03-27T11:28:43.471Z,15.20
2023-03-27T11:31:40.256Z,15.30
2023-03-27T11:34:29.523Z,15.30
2023-03-27T11:36:59.701Z,15.40
2023-03-27T11:39:42.151Z,15.40
2023-03-27T11:42:17.213Z,15.40
2023-03-27T11:44:44.543Z,15.30
2023-03-27T11:47:14.479Z,15.40
2023-03-27T11:49:53.785Z,15.30
2023-03-27T11:52:36.539Z,15.40
2023-03-27T11:55:31.258Z,15.40
2023-03-27T11:58:17.667Z,15.30
2023-03-27T12:00:50.422Z,15.30
2023-03-27T12:03:36.277Z,15.30
2023-03-27T12:06:22.667Z,15.40
2023-03-27T12:08:52.550Z,15.40
2023-03-27T12:11:20.542Z,15.50
2023-03-27T12:14:00.485Z,15.40
2023-03-27T12:16:28.237Z,15.40
2023-03-27T12:19:03.757Z,15.40
2023-03-27T12:21:46.628Z,15.40
2023-03-27T12:24:20.098Z,15.40
2023-03-27T12:26:52.964Z,15.40
2023-03-27T12:29:35.388Z,15.40
2023-03-27T12:32:08.400Z,15.40
2023-03-27T12:35:03.791Z,15.40
2023-03-27T12:37:34.635Z,15.40
2023-03-27T12:40:01.470Z,15.40
2023-03-27T12:42:46.637Z,15.40
2023-03-27T12:45:14.343Z,15.50
2023-03-27T12:47:44.821Z,15.50
2023-03-27T12:50:20.066Z,15.50
2023-03-27T12:52:46.917Z,15.50
2023-03-27T12:55:13.752Z,15.50
2023-03-27T12:57:44.501Z,15.50
2023-03-27T13:00:21.528Z,15.40
2023-03-27T13:02:57.545Z,15.50
2023-03-27T13:05:27.862Z,15.50
2023-03-27T13:07:57.626Z,15.50
2023-03-27T13:10:50.951Z,15.60
2023-03-27T13:13:20.846Z,15.50
2023-03-27T13:16:06.651Z,15.50
2023-03-27T13:18:53.941Z,15.50
2023-03-27T13:21:20.751Z,15.50
2023-03-27T13:23:59.583Z,15.60
2023-03-27T13:26:26.541Z,15.60
2023-03-27T13:28:54.330Z,15.60
2023-03-27T13:31:50.473Z,15.60
2023-03-27T13:34:26.262Z,15.60
2023-03-27T13:37:06.493Z,15.60
2023-03-27T13:39:40.969Z,15.60
2023-03-27T13:42:13.783Z,15.60
2023-03-27T13:44:47.233Z,15.60
2023-03-27T13:47:19.891Z,15.70
2023-03-27T13:49:46.643Z,15.70
2023-03-27T13:52:32.396Z,15.70
2023-03-27T13:54:59.176Z,15.60
2023-03-27T13:57:34.771Z,15.60
2023-03-27T14:00:08.398Z,15.60
2023-03-27T14:02:53.693Z,15.60
2023-03-27T14:05:27.882Z,15.60
2023-03-27T14:08:02.162Z,15.60
2023-03-27T14:10:38.037Z,15.60
2023-03-27T14:13:14.632Z,15.60
2023-03-27T14:15:41.340Z,15.60
2023-03-27T14:18:08.257Z,15.60
2023-03-27T14:20:45.451Z,15.60
2023-03-27T14:23:26.596Z,15.60
2023-03-27T14:26:02.012Z,15.60
2023-03-27T14:28:33.521Z,15.60
2023-03-27T14:31:03.346Z,15.70
2023-03-27T14:33:30.882Z,15.70
2023-03-27T14:36:04.035Z,15.70
2023-03-27T14:38:33.289Z,15.70
2023-03-27T14:41:01.295Z,15.70
2023-03-27T14:43:28.917Z,15.70
2023-03-27T14:45:58.674Z,15.60
2023-03-27T14:48:28.878Z,15.60
2023-03-27T14:51:01.929Z,15.60
2023-03-27T14:53:36.384Z,15.60
2023-03-27T14:56:11.694Z,15.60
2023-03-27T14:58:43.675Z,15.70
2023-03-27T15:01:10.550Z,15.70
2023-03-27T15:03:38.357Z,15.70
2023-03-27T15:06:15.567Z,15.70
2023-03-27T15:08:46.655Z,15.70
2023-03-27T15:11:19.671Z,15.70
2023-03-27T15:13:48.195Z,15.70
2023-03-27T15:16:23.068Z,15.70
2023-03-27T15:18:49.914Z,15.70
2023-03-27T15:21:22.132Z,15.70
2023-03-27T15:23:58.895Z,15.70
2023-03-27T15:26:28.769Z,15.70
2023-03-27T15:29:04.185Z,15.70
2023-03-27T15:31:32.922Z,15.70
2023-03-27T15:34:03.317Z,15.70
2023-03-27T15:36:34.343Z,15.70
2023-03-27T15:39:02.756Z,15.60
2023-03-27T15:41:32.290Z,15.60
2023-03-27T15:44:03.203Z,15.60
2023-03-27T15:46:48.882Z,15.60
2023-03-27T15:49:19.656Z,15.60
2023-03-27T15:51:46.428Z,15.60
2023-03-27T15:54:42.808Z,15.60
2023-03-27T15:57:15.039Z,15.50
2023-03-27T15:59:51.603Z,15.50
2023-03-27T16:02:21.269Z,15.60
2023-03-27T16:04:53.184Z,15.50
2023-03-27T16:07:23.160Z,15.50
2023-03-27T16:09:50.141Z,15.50
2023-03-27T16:12:18.760Z,15.50
2023-03-27T16:14:48.498Z,15.50
2023-03-27T16:17:16.960Z,15.50
2023-03-27T16:19:52.884Z,15.50
2023-03-27T16:22:38.726Z,15.50
2023-03-27T16:25:07.175Z,15.50
2023-03-27T16:27:38.878Z,15.50
2023-03-27T16:30:19.545Z,15.50
2023-03-27T16:32:46.333Z,15.50
2023-03-27T16:35:13.368Z,15.50
2023-03-27T16:37:40.165Z,15.50
2023-03-27T16:40:07.208Z,15.40
2023-03-27T16:42:33.995Z,15.40
2023-03-27T16:45:01.903Z,15.40
2023-03-27T16:47:28.656Z,15.30
2023-03-27T16:50:10.365Z,15.30
2023-03-27T16:52:38.241Z,15.30
2023-03-27T16:55:07.262Z,15.30
2023-03-27T16:57:34.674Z,15.30
2023-03-27T17:00:01.541Z,15.20
2023-03-27T17:02:30.754Z,15.30
2023-03-27T17:04:58.891Z,15.20
2023-03-27T17:07:27.644Z,15.20
2023-03-27T17:09:54.650Z,15.20
2023-03-27T17:12:21.536Z,15.20
2023-03-27T17:14:48.483Z,15.10
2023-03-27T17:17:15.496Z,15.10
2023-03-27T17:19:42.251Z,15.00
2023-03-27T17:22:09.565Z,15.00
2023-03-27T17:24:49.301Z,15.00
2023-03-27T17:27:20.594Z,14.90
2023-03-27T17:29:47.313Z,14.90
2023-03-27T17:32:14.289Z,14.80
2023-03-27T17:34:41.610Z,14.90
2023-03-27T17:37:08.335Z,14.80
2023-03-27T17:39:35.302Z,14.80
2023-03-27T17:42:02.174Z,14.80
2023-03-27T17:44:28.907Z,14.70
2023-03-27T17:46:55.704Z,14.70
2023-03-27T17:49:22.593Z,14.70
2023-03-27T17:51:49.391Z,14.70
2023-03-27T17:54:16.535Z,14.60
2023-03-27T17:56:43.449Z,14.60
2023-03-27T17:59:10.259Z,14.50
2023-03-27T18:01:37.155Z,14.50
2023-03-27T18:04:04.353Z,14.50
2023-03-27T18:06:31.221Z,14.50
2023-03-27T18:08:58.210Z,14.40
2023-03-27T18:11:25.079Z,14.40
2023-03-27T18:13:53.292Z,14.40
2023-03-27T18:16:21.837Z,14.30
2023-03-27T18:18:49.068Z,14.20
2023-03-27T18:21:16.408Z,14.20
2023-03-27T18:23:45.747Z,14.20
2023-03-27T18:26:13.969Z,14.20
2023-03-27T18:28:40.823Z,14.10
2023-03-27T18:31:09.104Z,14.00
2023-03-27T18:33:36.555Z,14.00
2023-03-27T18:36:04.204Z,14.00
2023-03-27T18:38:31.109Z,14.00
2023-03-27T18:40:59.809Z,13.90
2023-03-27T18:43:26.848Z,13.90
2023-03-27T18:46:01.039Z,13.90
2023-03-27T18:48:29.411Z,13.90
2023-03-27T18:50:56.939Z,13.90
2023-03-27T18:53:24.002Z,13.90
2023-03-27T18:55:51.490Z,13.80
2023-03-27T18:58:18.490Z,13.80
2023-03-27T19:00:46.109Z,13.80
2023-03-27T19:03:18.017Z,13.80
2023-03-27T19:05:45.107Z,13.80
2023-03-27T19:08:12.470Z,13.70
2023-03-27T19:10:39.450Z,13.70
2023-03-27T19:13:06.306Z,13.70
2023-03-27T19:15:33.437Z,13.70
2023-03-27T19:18:01.152Z,13.80
2023-03-27T19:20:28.339Z,13.70
2023-03-27T19:22:55.174Z,13.70
2023-03-27T19:25:21.962Z,13.70
2023-03-27T19:27:48.727Z,13.70
2023-03-27T19:30:15.825Z,13.70
2023-03-27T19:32:42.613Z,13.70
2023-03-27T19:35:09.579Z,13.70
2023-03-27T19:37:36.943Z,13.60
2023-03-27T19:40:05.463Z,13.60
2023-03-27T19:42:32.279Z,13.60
2023-03-27T19:44:59.071Z,13.60
2023-03-27T19:47:25.875Z,13.60
2023-03-27T19:49:53.682Z,13.60
2023-03-27T19:52:20.686Z,13.60
2023-03-27T19:54:47.432Z,13.60
2023-03-27T19:57:14.282Z,13.60
2023-03-27T19:59:41.240Z,13.50
2023-03-27T20:02:09.669Z,13.50
2023-03-27T20:04:36.445Z,13.50
2023-03-27T20:07:03.339Z,13.40
2023-03-27T20:09:30.409Z,13.50
2023-03-27T20:11:57.319Z,13.50
2023-03-27T20:14:24.320Z,13.50
2023-03-27T20:16:51.092Z,13.40
2023-03-27T20:19:18.657Z,13.50
2023-03-27T20:21:46.820Z,13.40
2023-03-27T20:24:14.288Z,13.40
2023-03-27T20:26:41.712Z,13.40
2023-03-27T20:29:10.134Z,13.50
2023-03-27T20:31:37.013Z,13.40
2023-03-27T20:34:04.707Z,13.40
2023-03-27T20:36:35.056Z,13.50
2023-03-27T20:39:07.977Z,13.50
2023-03-27T20:41:39.067Z,13.40
2023-03-27T20:44:14.964Z,13.50
2023-03-27T20:46:47.787Z,13.40
2023-03-27T20:49:37.575Z,13.30
2023-03-27T20:52:07.565Z,13.40
2023-03-27T20:54:34.770Z,13.60
2023-03-27T20:57:02.731Z,13.60
2023-03-27T20:59:30.712Z,13.60
2023-03-27T21:01:57.867Z,13.50
2023-03-27T21:04:26.137Z,13.60
2023-03-27T21:06:54.966Z,13.50
2023-03-27T21:09:22.447Z,13.50
2023-03-27T21:11:49.329Z,13.30
2023-03-27T21:14:16.274Z,13.30
2023-03-27T21:16:43.280Z,13.20
2023-03-27T21:19:10.773Z,13.10
2023-03-27T21:21:37.708Z,13.10
2023-03-27T21:24:04.777Z,12.80
2023-03-27T21:26:31.543Z,12.70
2023-03-27T21:28:58.433Z,12.50
2023-03-27T21:31:25.243Z,12.40
2023-03-27T21:33:52.067Z,12.50
2023-03-27T21:36:19.007Z,12.80
2023-03-27T21:38:45.849Z,13.20
2023-03-27T21:41:14.315Z,13.20
2023-03-27T21:43:41.195Z,13.20
2023-03-27T21:46:08.153Z,13.20
2023-03-27T21:48:34.899Z,13.20
2023-03-27T21:51:02.962Z,13.20
2023-03-27T21:53:29.818Z,13.20
2023-03-27T21:55:57.653Z,13.20
2023-03-27T21:58:25.339Z,13.30
2023-03-27T22:00:52.415Z,13.40
2023-03-27T22:03:19.157Z,13.30
2023-03-27T22:05:54.354Z,13.30
2023-03-27T22:08:28.064Z,13.30
2023-03-27T22:10:58.987Z,13.30
2023-03-27T22:13:25.855Z,13.30
2023-03-27T22:15:52.643Z,13.20
2023-03-27T22:18:19.564Z,13.30
2023-03-27T22:20:46.468Z,13.50
2023-03-27T22:23:13.209Z,13.60
2023-03-27T22:25:40.087Z,13.60
2023-03-27T22:28:06.846Z,13.70
2023-03-27T22:30:33.848Z,13.60
2023-03-27T22:33:00.802Z,13.60
2023-03-27T22:35:27.631Z,13.60
2023-03-27T22:37:54.347Z,13.50
2023-03-27T22:40:21.192Z,13.30
2023-03-27T22:42:47.957Z,13.50
2023-03-27T22:45:14.744Z,13.50
2023-03-27T22:47:41.587Z,13.40
2023-03-27T22:50:08.908Z,13.40
2023-03-27T22:52:35.624Z,13.40
2023-03-27T22:55:02.390Z,13.30
2023-03-27T22:57:29.172Z,13.20
2023-03-27T22:59:56.082Z,13.40
2023-03-27T23:02:22.989Z,13.60
2023-03-27T23:04:49.790Z,13.60
2023-03-27T23:07:16.602Z,13.60
2023-03-27T23:09:43.433Z,13.50
2023-03-27T23:12:10.234Z,13.30
2023-03-27T23:14:36.990Z,12.90
2023-03-27T23:17:04.040Z,12.90
2023-03-27T23:19:30.920Z,13.20
2023-03-27T23:21:57.665Z,13.20
2023-03-27T23:24:24.424Z,12.80
2023-03-27T23:26:51.342Z,12.60
2023-03-27T23:29:18.079Z,12.40
2023-03-27T23:31:44.963Z,12.20
2023-03-27T23:34:11.746Z,12.20
2023-03-27T23:36:38.574Z,12.10
2023-03-27T23:39:05.395Z,12.30
2023-03-27T23:41:32.163Z,12.70
2023-03-27T23:43:58.902Z,13.00
2023-03-27T23:46:25.895Z,12.80
2023-03-27T23:48:52.650Z,12.50
2023-03-27T23:51:19.376Z,12.30
2023-03-27T23:53:46.260Z,12.30
2023-03-27T23:56:13.168Z,12.20
2023-03-27T23:58:39.972Z,12.20
